Pella, Idaho
Current Conditions -  °F | °C
As of 4:53 PM on Monday 24 Nov 2014 (Local Time) from KBYI Reporting Station
Clear Clear  
Wind Chill: 33°   Ceiling: Unl
Heat Index: 39°   Visibility: 10mi
Dew Point: 25°   Wind: 8mph
Humidity: 57%   Direction: 270°W
Pressure: 30.37"   Gusts: NA
Location:  42.5011°N, 113.814°W
Report Text: KBYI 242353Z AUTO 27007KT 10SM CLR 04/M04 A3037 RMK AO2 SLP297 6//// T00391039 10056 20028 53002
Loading
Personal Weather Stations






























Interactive Weather Map New forecast layout! Learn more

10-Day Weather Forecast

Advertisements
Track Severe Weather on mobile